sensor_id;sensor_type;location;lat;lon;timestamp;temperature;humidity
73875;HTU21D;62209;47.568;7.558;2023-07-30T00:06:40;18.00;107.62
73875;HTU21D;62209;47.568;7.558;2023-07-30T00:21:46;17.63;108.74
73875;HTU21D;62209;47.568;7.558;2023-07-30T00:36:52;17.62;107.92
73875;HTU21D;62209;47.568;7.558;2023-07-30T00:51:58;17.34;107.86
73875;HTU21D;62209;47.568;7.558;2023-07-30T01:07:04;17.18;107.20
73875;HTU21D;62209;47.568;7.558;2023-07-30T01:22:10;17.14;107.11
73875;HTU21D;62209;47.568;7.558;2023-07-30T01:37:15;16.90;107.88
73875;HTU21D;62209;47.568;7.558;2023-07-30T01:52:23;17.16;107.78
73875;HTU21D;62209;47.568;7.558;2023-07-30T02:07:29;17.15;107.51
73875;HTU21D;62209;47.568;7.558;2023-07-30T02:22:34;16.82;107.93
73875;HTU21D;62209;47.568;7.558;2023-07-30T02:37:40;16.70;108.75
73875;HTU21D;62209;47.568;7.558;2023-07-30T02:52:45;16.37;108.92
73875;HTU21D;62209;47.568;7.558;2023-07-30T03:07:51;16.27;109.37
73875;HTU21D;62209;47.568;7.558;2023-07-30T03:22:57;16.18;109.46
73875;HTU21D;62209;47.568;7.558;2023-07-30T03:38:03;15.99;109.10
73875;HTU21D;62209;47.568;7.558;2023-07-30T03:53:08;16.15;109.43
73875;HTU21D;62209;47.568;7.558;2023-07-30T04:08:15;16.92;108.99
73875;HTU21D;62209;47.568;7.558;2023-07-30T04:23:22;18.05;106.21
73875;HTU21D;62209;47.568;7.558;2023-07-30T04:38:28;17.54;108.03
73875;HTU21D;62209;47.568;7.558;2023-07-30T04:53:34;17.59;108.51
73875;HTU21D;62209;47.568;7.558;2023-07-30T05:08:39;17.81;107.66
73875;HTU21D;62209;47.568;7.558;2023-07-30T05:23:45;18.04;107.89
73875;HTU21D;62209;47.568;7.558;2023-07-30T05:38:50;18.96;103.92
73875;HTU21D;62209;47.568;7.558;2023-07-30T05:53:56;18.67;107.66
73875;HTU21D;62209;47.568;7.558;2023-07-30T06:09:02;19.29;105.22
73875;HTU21D;62209;47.568;7.558;2023-07-30T06:24:09;19.17;106.21
73875;HTU21D;62209;47.568;7.558;2023-07-30T06:39:15;19.87;103.72
73875;HTU21D;62209;47.568;7.558;2023-07-30T06:54:21;21.44;99.55
73875;HTU21D;62209;47.568;7.558;2023-07-30T07:09:28;20.59;101.37
73875;HTU21D;62209;47.568;7.558;2023-07-30T07:24:34;21.46;94.78
73875;HTU21D;62209;47.568;7.558;2023-07-30T07:39:40;20.92;95.03
73875;HTU21D;62209;47.568;7.558;2023-07-30T07:54:46;20.78;94.98
73875;HTU21D;62209;47.568;7.558;2023-07-30T08:09:53;22.69;92.22
73875;HTU21D;62209;47.568;7.558;2023-07-30T08:24:59;20.86;93.62
73875;HTU21D;62209;47.568;7.558;2023-07-30T08:40:06;20.84;92.21
73875;HTU21D;62209;47.568;7.558;2023-07-30T08:55:13;21.09;91.74
73875;HTU21D;62209;47.568;7.558;2023-07-30T09:10:20;20.91;91.99
73875;HTU21D;62209;47.568;7.558;2023-07-30T09:25:26;22.28;88.13
73875;HTU21D;62209;47.568;7.558;2023-07-30T09:40:32;22.75;85.17
73875;HTU21D;62209;47.568;7.558;2023-07-30T09:55:40;23.70;80.84
73875;HTU21D;62209;47.568;7.558;2023-07-30T10:10:46;24.77;73.55
73875;HTU21D;62209;47.568;7.558;2023-07-30T10:25:54;24.80;72.36
73875;HTU21D;62209;47.568;7.558;2023-07-30T10:41:02;25.48;72.68
73875;HTU21D;62209;47.568;7.558;2023-07-30T10:56:09;25.04;65.72
73875;HTU21D;62209;47.568;7.558;2023-07-30T11:11:17;24.54;65.53
73875;HTU21D;62209;47.568;7.558;2023-07-30T11:26:23;24.84;61.45
73875;HTU21D;62209;47.568;7.558;2023-07-30T11:41:29;25.86;62.18
73875;HTU21D;62209;47.568;7.558;2023-07-30T11:56:36;26.30;63.05
73875;HTU21D;62209;47.568;7.558;2023-07-30T12:11:46;25.68;61.59
73875;HTU21D;62209;47.568;7.558;2023-07-30T12:26:54;26.45;60.12
73875;HTU21D;62209;47.568;7.558;2023-07-30T12:42:00;26.89;58.89
73875;HTU21D;62209;47.568;7.558;2023-07-30T12:57:07;26.70;57.61
73875;HTU21D;62209;47.568;7.558;2023-07-30T13:12:14;26.32;62.16
73875;HTU21D;62209;47.568;7.558;2023-07-30T13:27:20;25.48;65.84
73875;HTU21D;62209;47.568;7.558;2023-07-30T13:42:27;24.41;64.82
73875;HTU21D;62209;47.568;7.558;2023-07-30T13:57:34;24.79;67.68
73875;HTU21D;62209;47.568;7.558;2023-07-30T14:12:40;23.67;70.10
73875;HTU21D;62209;47.568;7.558;2023-07-30T14:27:46;24.61;72.08
73875;HTU21D;62209;47.568;7.558;2023-07-30T14:42:53;24.35;67.94
73875;HTU21D;62209;47.568;7.558;2023-07-30T14:58:01;26.30;68.25
73875;HTU21D;62209;47.568;7.558;2023-07-30T15:13:07;25.69;69.84
73875;HTU21D;62209;47.568;7.558;2023-07-30T15:28:13;24.08;71.89
73875;HTU21D;62209;47.568;7.558;2023-07-30T15:43:20;24.73;68.13
73875;HTU21D;62209;47.568;7.558;2023-07-30T15:58:26;25.05;67.18
73875;HTU21D;62209;47.568;7.558;2023-07-30T16:13:32;24.68;67.08
73875;HTU21D;62209;47.568;7.558;2023-07-30T16:28:39;24.65;65.98
73875;HTU21D;62209;47.568;7.558;2023-07-30T16:43:46;24.59;67.94
73875;HTU21D;62209;47.568;7.558;2023-07-30T16:58:53;24.82;69.00
73875;HTU21D;62209;47.568;7.558;2023-07-30T17:14:00;23.38;72.25
73875;HTU21D;62209;47.568;7.558;2023-07-30T17:29:06;23.22;73.81
73875;HTU21D;62209;47.568;7.558;2023-07-30T17:44:12;22.88;74.82
73875;HTU21D;62209;47.568;7.558;2023-07-30T17:59:19;22.54;75.43
73875;HTU21D;62209;47.568;7.558;2023-07-30T18:14:28;22.39;75.84
73875;HTU21D;62209;47.568;7.558;2023-07-30T18:29:35;21.93;76.98
73875;HTU21D;62209;47.568;7.558;2023-07-30T18:44:42;21.53;78.58
73875;HTU21D;62209;47.568;7.558;2023-07-30T18:59:48;21.03;80.43
73875;HTU21D;62209;47.568;7.558;2023-07-30T19:14:54;20.50;82.56
73875;HTU21D;62209;47.568;7.558;2023-07-30T19:30:01;19.85;84.29
73875;HTU21D;62209;47.568;7.558;2023-07-30T19:45:08;19.40;87.06
73875;HTU21D;62209;47.568;7.558;2023-07-30T20:00:15;19.22;87.98
73875;HTU21D;62209;47.568;7.558;2023-07-30T20:15:22;18.88;88.05
73875;HTU21D;62209;47.568;7.558;2023-07-30T20:30:28;18.51;90.18
73875;HTU21D;62209;47.568;7.558;2023-07-30T20:45:34;18.26;89.46
73875;HTU21D;62209;47.568;7.558;2023-07-30T21:00:41;17.87;89.50
73875;HTU21D;62209;47.568;7.558;2023-07-30T21:15:47;17.69;90.05
73875;HTU21D;62209;47.568;7.558;2023-07-30T21:31:01;17.55;90.39
73875;HTU21D;62209;47.568;7.558;2023-07-30T21:46:07;17.15;92.27
73875;HTU21D;62209;47.568;7.558;2023-07-30T22:01:14;16.85;92.55
73875;HTU21D;62209;47.568;7.558;2023-07-30T22:16:20;16.58;93.41
73875;HTU21D;62209;47.568;7.558;2023-07-30T22:31:26;16.62;91.56
73875;HTU21D;62209;47.568;7.558;2023-07-30T22:46:32;16.75;91.03
73875;HTU21D;62209;47.568;7.558;2023-07-30T23:01:38;16.59;91.21
73875;HTU21D;62209;47.568;7.558;2023-07-30T23:16:44;16.48;91.43
73875;HTU21D;62209;47.568;7.558;2023-07-30T23:31:51;16.50;91.14
73875;HTU21D;62209;47.568;7.558;2023-07-30T23:46:57;16.03;92.80
